Latest Weather Observations for Coen Airport

IDQ60801

Issued at 5:35 pm EST Sunday 21 September 2014 (issued every 30 minutes, with the page automatically refreshed every 10 minutes)

About weather observations | Map of weather stations | Latest weather observations for QLD | Other Formats
Station Details ID: 027073 Name: COEN AIRPORT Lat: -13.76 Lon: 143.12 Height: 159.3 m
Data from the previous 72 hours. | See also: Recent months at Coen Airport
Date/Time
EST
Temp
°C
App
Temp
°C
Dew
Point
Rel
Hum
%
Delta-T
°C
Wind Press
QNH
hPa
Press
MSL
hPa
Rain
since 9 am
mm
Dir
 
Spd
km/h
Gust
km/h
Spd
kts
Gust
kts
21/05:30pm 26.0 25.0 15.7 53 6.3 NE 15 26 8 14 1013.8 - 0.0
21/05:00pm 27.8 25.7 15.1 46 7.8 NNE 20 24 11 13 1013.6 - 0.0
21/04:30pm 28.5 25.6 11.1 34 10.0 ENE 17 30 9 16 1013.6 - 0.0
21/04:00pm 29.8 25.1 9.3 28 11.5 ESE 24 35 13 19 1013.5 - 0.0
21/03:30pm 28.9 25.8 11.5 34 10.1 ENE 19 28 10 15 1013.4 - 0.0
21/03:00pm 30.3 26.5 9.8 28 11.6 E 20 35 11 19 1013.6 1012.7 0.0
21/02:30pm 30.6 27.4 12.0 32 11.0 ENE 20 30 11 16 1013.7 - 0.0
21/02:00pm 29.5 26.2 11.5 33 10.5 ENE 20 32 11 17 1014.0 - 0.0
21/01:30pm 31.3 28.7 13.1 33 10.9 ENE 19 35 10 19 1014.2 - 0.0
21/01:00pm 30.7 27.7 12.1 32 11.0 ENE 19 32 10 17 1014.7 - 0.0
21/12:30pm 30.2 28.0 12.1 32 10.7 E 15 24 8 13 1015.3 - 0.0
21/12:00pm 30.0 27.7 12.9 35 10.2 ENE 17 28 9 15 1015.9 1015.0 0.0
21/11:30am 29.2 26.1 14.6 41 8.9 NNE 24 33 13 18 1016.1 - 0.0
21/11:00am 28.5 26.4 15.1 44 8.2 NE 20 30 11 16 1016.8 - 0.0
21/10:30am 27.4 25.3 14.8 46 7.7 NE 19 26 10 14 1017.0 - 0.0
21/10:00am 27.1 24.9 14.5 46 7.6 ENE 19 28 10 15 1017.0 - 0.0
21/09:30am 26.7 26.3 15.1 49 7.1 E 11 20 6 11 1016.9 - 0.0
21/09:00am 25.6 26.9 16.2 56 5.8 S 4 13 2 7 1016.9 1016.2 0.0
21/08:30am 24.4 25.3 16.6 61 4.8 SW 7 11 4 6 1016.6 - 0.0
21/08:00am 23.8 24.8 16.8 65 4.3 ESE 7 13 4 7 1016.0 - 0.0
21/07:30am 22.5 24.7 17.4 73 3.2 NE 2 7 1 4 1015.7 - 0.0
21/07:00am 20.2 21.4 16.8 81 2.1 WSW 6 9 3 5 1015.2 - 0.0
21/06:30am 19.3 20.5 16.0 81 2.0 S 4 7 2 4 1014.9 - 0.0
21/06:00am 19.7 20.4 16.2 80 2.1 SSW 7 15 4 8 1014.4 1013.6 0.0
21/05:30am 19.5 21.0 16.7 84 1.7 NW 4 9 2 5 1013.9 - 0.0
21/05:00am 18.4 20.0 16.0 86 1.4 SSE 2 7 1 4 1013.4 - 0.0
21/04:30am 18.0 18.5 15.1 83 1.7 NE 6 9 3 5 1013.2 - 0.0
21/04:00am 19.2 19.9 15.7 80 2.1 SSW 6 9 3 5 1013.1 - 0.0
21/03:30am 19.7 20.2 15.6 77 2.4 W 7 9 4 5 1013.2 - 0.0
21/03:00am 20.5 20.3 15.7 74 2.9 W 11 15 6 8 1013.2 1012.4 0.0
21/02:30am 21.4 21.5 15.5 69 3.5 WSW 9 13 5 7 1013.4 - 0.0
21/02:00am 21.8 23.2 15.4 67 3.8 NNW 2 7 1 4 1013.5 - 0.0
21/01:30am 21.3 22.5 14.9 67 3.8 S 2 9 1 5 1013.9 - 0.0
21/01:00am 22.6 22.8 15.7 65 4.2 NW 9 15 5 8 1014.4 - 0.0
21/12:30am 22.6 23.0 15.4 64 4.3 NNW 7 13 4 7 1014.5 - 0.0
21/12:00am 22.9 23.2 16.0 65 4.2 NNW 9 13 5 7 1015.0 1014.2 0.0
 
Date/Time
EST
Temp
°C
App
Temp
°C
Dew
Point
Rel
Hum
%
Delta-T
°C
Wind Press
QNH
hPa
Press
MSL
hPa
Rain
since 9 am
mm
Dir
 
Spd
km/h
Gust
km/h
Spd
kts
Gust
kts
20/11:30pm 23.0 22.1 16.8 68 3.8 WNW 17 20 9 11 1015.3 - 0.0
20/11:00pm 22.7 23.5 16.3 67 3.9 N 7 15 4 8 1015.4 - 0.0
20/10:30pm 23.3 23.2 16.1 64 4.4 NE 11 19 6 10 1015.3 - 0.0
20/10:00pm 23.0 23.5 15.6 63 4.5 NE 7 15 4 8 1015.4 - 0.0
20/09:30pm 23.0 23.3 16.1 65 4.2 NE 9 15 5 8 1015.5 - 0.0
20/09:00pm 23.2 23.0 16.7 67 4.0 ENE 13 20 7 11 1015.1 1014.3 0.0
20/08:30pm 23.4 22.9 16.9 67 4.0 ENE 15 28 8 15 1014.8 - 0.0
20/08:00pm 23.4 22.5 16.9 67 4.0 ENE 17 30 9 16 1014.8 - 0.0
20/07:30pm 23.9 22.3 16.4 63 4.6 NE 20 30 11 16 1014.3 - 0.0
20/07:00pm 24.4 21.7 15.6 58 5.4 NE 24 37 13 20 1013.8 - 0.0
20/06:30pm 25.4 22.7 12.9 45 7.3 ENE 19 37 10 20 1013.5 - 0.0
20/06:00pm 26.2 22.5 10.0 36 9.1 ENE 20 33 11 18 1013.3 1012.5 0.0
20/05:30pm 26.8 23.1 10.1 35 9.4 ENE 20 32 11 17 1013.0 - 0.0
20/05:00pm 27.4 22.8 11.0 36 9.4 NE 26 41 14 22 1012.8 - 0.0
20/04:30pm 28.4 25.1 13.9 41 8.7 NE 24 35 13 19 1012.4 - 0.0
20/04:00pm 29.8 25.6 12.3 34 10.3 NE 26 39 14 21 1012.1 - 0.0
20/03:30pm 32.0 29.2 11.2 28 12.2 ENE 17 26 9 14 1011.9 - 0.0
20/03:00pm 32.1 29.7 10.2 26 12.6 E 13 24 7 13 1012.1 1011.2 0.0
20/02:30pm 32.2 28.6 8.4 23 13.3 E 17 28 9 15 1012.2 - 0.0
20/02:00pm 32.2 28.1 7.8 22 13.5 E 19 28 10 15 1012.6 - 0.0
20/01:30pm 32.9 28.6 7.0 20 14.2 E 19 32 10 17 1013.0 - 0.0
20/01:00pm 32.2 27.7 7.1 21 13.8 ESE 20 35 11 19 1013.5 - 0.0
20/12:30pm 32.9 28.7 8.4 22 13.8 ESE 20 37 11 20 1014.0 - 0.0
20/12:00pm 33.2 29.4 9.9 24 13.4 E 20 28 11 15 1014.4 1013.6 0.0
20/11:30am 31.4 27.8 8.4 24 12.8 E 17 35 9 19 1015.1 - 0.0
20/11:00am 31.3 27.0 9.5 26 12.4 SE 22 28 12 15 1015.5 - 0.0
20/10:30am 30.4 27.9 9.8 28 11.7 ENE 13 22 7 12 1015.9 - 0.0
20/10:00am 28.6 28.1 12.5 37 9.5 N 7 15 4 8 1016.3 - 0.0
20/09:30am 27.8 27.5 13.3 40 8.6 NNW 7 13 4 7 1016.4 - 0.0
20/09:00am 25.9 26.6 14.4 49 6.9 S 4 9 2 5 1016.6 1015.9 0.0
20/08:30am 25.0 25.7 15.6 56 5.7 SSW 6 9 3 5 1016.4 - 0.0
20/08:00am 22.7 24.2 16.7 69 3.7 SSW 4 7 2 4 1016.2 - 0.0
20/07:30am 19.7 21.8 16.3 81 2.1 CALM 0 0 0 0 1016.0 - 0.0
20/07:00am 17.3 18.7 15.5 89 1.1 WNW 2 9 1 5 1015.4 - 0.0
20/06:30am 16.2 16.9 14.4 89 1.0 W 4 9 2 5 1015.0 - 0.0
20/06:00am 17.2 17.4 14.7 85 1.5 SSW 7 13 4 7 1014.9 1014.1 0.0
20/05:30am 18.4 18.9 15.5 83 1.7 SSE 7 13 4 7 1014.1 - 0.0
20/05:00am 18.5 19.5 14.4 77 2.4 NE 2 6 1 3 1013.8 - 0.0
20/04:30am 19.7 20.9 15.8 78 2.3 NW 4 9 2 5 1013.8 - 0.0
20/04:00am 21.6 22.1 16.6 73 3.1 ENE 9 15 5 8 1013.9 - 0.0
20/03:30am 21.6 21.4 16.8 74 2.9 NE 13 19 7 10 1013.9 - 0.0
20/03:00am 21.1 21.8 16.1 73 3.0 NE 7 11 4 6 1014.1 1013.3 0.0
20/02:30am 21.1 21.9 16.3 74 2.9 N 7 11 4 6 1014.3 - 0.0
20/02:00am 21.6 21.7 16.6 73 3.1 NE 11 15 6 8 1014.7 - 0.0
20/01:30am 21.3 22.3 16.3 73 3.0 N 6 11 3 6 1015.1 - 0.0
20/01:00am 21.6 22.7 16.6 73 3.1 ENE 6 13 3 7 1015.4 - 0.0
20/12:30am 21.7 22.7 16.4 72 3.2 NE 6 11 3 6 1015.9 - 0.0
20/12:00am 21.8 22.9 16.5 72 3.2 NNE 6 11 3 6 1016.0 1015.2 0.0
 
Date/Time
EST
Temp
°C
App
Temp
°C
Dew
Point
Rel
Hum
%
Delta-T
°C
Wind Press
QNH
hPa
Press
MSL
hPa
Rain
since 9 am
mm
Dir
 
Spd
km/h
Gust
km/h
Spd
kts
Gust
kts
19/11:30pm 22.2 22.8 16.7 71 3.4 E 9 19 5 10 1016.2 - 0.0
19/11:00pm 22.3 22.1 16.8 71 3.4 ENE 13 20 7 11 1016.2 - 0.0
19/10:30pm 22.1 22.8 17.0 73 3.1 NE 9 15 5 8 1016.2 - 0.0
19/10:00pm 22.0 23.3 17.2 74 3.0 ENE 6 17 3 9 1016.4 - 0.0
19/09:30pm 22.0 22.9 16.5 71 3.4 NE 7 15 4 8 1016.4 - 0.0
19/09:00pm 22.6 22.7 16.4 68 3.8 ENE 11 19 6 10 1016.1 1015.3 0.0
19/08:30pm 22.9 21.9 15.5 63 4.5 ENE 15 20 8 11 1015.7 - 0.0
19/08:00pm 22.9 22.2 15.5 63 4.5 NE 13 20 7 11 1015.3 - 0.0
19/07:30pm 23.1 22.3 16.2 65 4.2 ENE 15 22 8 12 1015.0 - 0.0
19/07:00pm 23.3 22.9 16.1 64 4.4 ENE 13 26 7 14 1014.8 - 0.0
19/06:30pm 24.2 23.6 15.7 59 5.2 ENE 13 20 7 11 1014.4 - 0.0
19/06:00pm 25.3 23.6 14.7 51 6.4 NE 17 22 9 12 1013.8 1013.0 0.0
19/05:30pm 26.7 24.6 15.1 49 7.1 NE 20 28 11 15 1013.4 - 0.0
19/05:00pm 28.6 26.2 14.4 41 8.6 NE 20 28 11 15 1013.1 - 0.0
19/04:30pm 29.1 26.8 12.9 37 9.6 ENE 17 30 9 16 1013.0 - 0.0
19/04:00pm 30.6 27.4 10.0 28 11.8 ENE 17 26 9 14 1013.2 - 0.0
19/03:30pm 29.8 26.8 11.8 33 10.5 ENE 19 26 10 14 1013.2 - 0.0
19/03:00pm 31.0 28.5 12.4 32 11.0 NE 17 33 9 18 1013.5 1012.6 0.0
19/02:30pm 29.9 27.0 12.3 33 10.4 NE 19 32 10 17 1013.8 - 0.0
19/02:00pm 31.4 28.0 11.2 29 11.8 ENE 20 32 11 17 1014.2 - 0.0
19/01:30pm 30.7 26.9 11.1 30 11.4 ENE 22 33 12 18 1014.5 - 0.0
19/01:00pm 31.4 28.0 11.2 29 11.8 ENE 20 35 11 19 1014.8 - 0.0
19/12:30pm 31.1 27.8 11.5 30 11.5 ENE 20 28 11 15 1015.2 - 0.0
19/12:00pm 30.9 27.6 9.7 27 12.0 ENE 17 30 9 16 1015.5 1014.6 0.0
19/11:30am 31.4 27.3 7.8 23 13.0 E 19 30 10 16 1015.9 - 0.0
19/11:00am 30.5 27.2 12.9 34 10.5 NNE 22 32 12 17 1016.3 - 0.0
19/10:30am 30.1 27.5 12.1 33 10.6 NE 17 32 9 17 1016.6 - 0.0
19/10:00am 28.1 26.6 12.0 36 9.4 NNE 11 19 6 10 1017.0 - 0.0
19/09:30am 26.2 26.1 13.3 45 7.6 SSE 6 13 3 7 1017.3 - 0.0
19/09:00am 24.7 25.3 14.2 52 6.2 SW 4 7 2 4 1017.1 1016.5 0.0
19/08:30am 21.3 23.7 16.9 76 2.7 CALM 0 6 0 3 1016.9 - 0.0
19/08:00am 18.4 20.2 16.4 88 1.2 WSW 2 6 1 3 1016.6 - 0.0
19/07:30am 17.3 18.0 16.2 93 0.7 SW 7 11 4 6 1016.3 - 0.0
19/07:00am 16.3 16.9 15.3 94 0.6 SSW 6 11 3 6 1015.9 - 0.0
19/06:30am 15.0 15.0 13.7 92 0.7 S 6 9 3 5 1015.6 - 0.0
19/06:00am 15.9 17.1 14.8 93 0.6 SSW 2 6 1 3 1015.2 1014.5 0.0
19/05:30am 16.2 17.1 15.2 94 0.6 SSW 4 7 2 4 1015.0 - 0.0
19/05:00am 16.5 17.2 15.7 95 0.5 SSW 6 11 3 6 1014.7 - 0.0
19/04:30am 16.6 17.1 15.6 94 0.6 SW 7 13 4 7 1014.4 - 0.0
19/04:00am 16.9 16.9 16.3 96 0.4 SSW 11 17 6 9 1014.4 - 0.0
19/03:30am 15.0 16.2 13.7 92 0.7 CALM 0 0 0 0 1014.2 - 0.0
19/03:00am 15.5 16.7 13.9 90 0.9 CALM 0 0 0 0 1014.0 1013.3 0.0
19/02:30am 16.6 18.3 15.1 91 0.9 CALM 0 0 0 0 1014.3 - 0.0
19/02:00am 17.7 18.8 16.7 94 0.6 N 6 7 3 4 1014.6 - 0.0
19/01:30am 16.6 17.1 15.6 94 0.6 N 7 9 4 5 1015.2 - 0.0
19/01:00am 16.5 16.6 14.5 88 1.2 NNW 7 9 4 5 1015.4 - 0.0
19/12:30am 18.5 19.9 16.3 87 1.3 NNW 4 9 2 5 1015.8 - 0.0
19/12:00am 19.3 19.8 17.4 89 1.2 NNE 11 13 6 7 1016.1 1015.2 0.0
 
Date/Time
EST
Temp
°C
App
Temp
°C
Dew
Point
Rel
Hum
%
Delta-T
°C
Wind Press
QNH
hPa
Press
MSL
hPa
Rain
since 9 am
mm
Dir
 
Spd
km/h
Gust
km/h
Spd
kts
Gust
kts
18/11:30pm 19.6 20.1 17.4 87 1.4 N 11 13 6 7 1016.3 - 0.0
18/11:00pm 20.0 20.8 17.4 85 1.6 N 9 13 5 7 1016.3 - 0.0
18/10:30pm 20.3 20.4 17.5 84 1.7 NNE 13 17 7 9 1016.5 - 0.0
18/10:00pm 20.4 20.6 17.6 84 1.7 N 13 17 7 9 1016.5 - 0.0
18/09:30pm 21.0 21.2 17.6 81 2.1 NNE 13 17 7 9 1016.4 - 0.0
18/09:00pm 21.4 21.2 17.6 79 2.4 NE 15 22 8 12 1016.3 1015.5 0.0
18/08:30pm 21.8 21.8 17.2 75 2.8 NE 13 20 7 11 1015.9 - 0.0
18/08:00pm 22.4 22.1 16.4 69 3.7 NE 13 22 7 12 1015.5 - 0.0
18/07:30pm 23.1 22.6 14.9 60 4.9 NNE 11 15 6 8 1015.2 - 0.0
18/07:00pm 24.6 23.4 9.7 39 8.2 NNE 6 9 3 5 1014.8 - 0.0
18/06:30pm 26.4 24.4 6.9 29 10.3 E 7 13 4 7 1014.4 - 0.0
18/06:00pm 27.7 24.8 6.5 26 11.2 E 11 20 6 11 1014.3 1013.5 0.0

Other Formats:

Comma delimited format used in spreadsheet applications
http://www.bom.gov.au/fwo/IDQ60801/IDQ60801.94183.axf

JavaScript Object Notation format (JSON) in row-major order
http://www.bom.gov.au/fwo/IDQ60801/IDQ60801.94183.json